sensor_id;sensor_type;location;lat;lon;timestamp;temperature;humidity
6355;DHT22;3210;48.708;9.030;2023-05-29T06:30:15;16.70;1.00
6355;DHT22;3210;48.708;9.030;2023-05-29T06:32:42;16.70;1.00
6355;DHT22;3210;48.708;9.030;2023-05-29T06:35:09;16.80;1.00
6355;DHT22;3210;48.708;9.030;2023-05-29T06:37:36;17.00;1.00
6355;DHT22;3210;48.708;9.030;2023-05-29T06:40:03;17.00;1.00
6355;DHT22;3210;48.708;9.030;2023-05-29T06:42:31;17.10;1.00
6355;DHT22;3210;48.708;9.030;2023-05-29T06:44:58;17.20;1.00
6355;DHT22;3210;48.708;9.030;2023-05-29T06:47:26;17.10;1.00
6355;DHT22;3210;48.708;9.030;2023-05-29T06:49:53;17.20;1.00
6355;DHT22;3210;48.708;9.030;2023-05-29T06:52:19;17.30;1.00
6355;DHT22;3210;48.708;9.030;2023-05-29T06:54:46;17.50;1.00
6355;DHT22;3210;48.708;9.030;2023-05-29T06:57:13;17.50;1.00
6355;DHT22;3210;48.708;9.030;2023-05-29T06:59:40;17.70;1.00
6355;DHT22;3210;48.708;9.030;2023-05-29T07:02:07;17.80;1.00
6355;DHT22;3210;48.708;9.030;2023-05-29T07:04:35;17.80;1.00
6355;DHT22;3210;48.708;9.030;2023-05-29T07:07:02;17.90;1.00
6355;DHT22;3210;48.708;9.030;2023-05-29T07:09:29;17.90;1.00
6355;DHT22;3210;48.708;9.030;2023-05-29T07:11:55;17.70;1.00
6355;DHT22;3210;48.708;9.030;2023-05-29T07:14:22;17.50;1.00
6355;DHT22;3210;48.708;9.030;2023-05-29T07:16:49;17.80;1.00
6355;DHT22;3210;48.708;9.030;2023-05-29T07:19:16;18.00;1.00
6355;DHT22;3210;48.708;9.030;2023-05-29T07:21:44;18.20;1.00
6355;DHT22;3210;48.708;9.030;2023-05-29T07:24:11;18.50;1.00
6355;DHT22;3210;48.708;9.030;2023-05-29T07:26:37;18.30;1.00
6355;DHT22;3210;48.708;9.030;2023-05-29T07:29:04;18.30;1.00
6355;DHT22;3210;48.708;9.030;2023-05-29T07:31:31;18.40;1.00
6355;DHT22;3210;48.708;9.030;2023-05-29T07:33:58;18.50;1.00
6355;DHT22;3210;48.708;9.030;2023-05-29T07:36:29;18.60;1.00
6355;DHT22;3210;48.708;9.030;2023-05-29T07:38:58;18.90;1.00
6355;DHT22;3210;48.708;9.030;2023-05-29T07:41:25;18.70;1.00
6355;DHT22;3210;48.708;9.030;2023-05-29T07:43:52;19.00;1.00
6355;DHT22;3210;48.708;9.030;2023-05-29T07:46:21;19.20;1.00
6355;DHT22;3210;48.708;9.030;2023-05-29T07:48:47;19.40;1.00
6355;DHT22;3210;48.708;9.030;2023-05-29T07:51:14;19.60;1.00
6355;DHT22;3210;48.708;9.030;2023-05-29T07:53:44;19.70;1.00
6355;DHT22;3210;48.708;9.030;2023-05-29T07:56:12;19.70;1.00
6355;DHT22;3210;48.708;9.030;2023-05-29T07:58:39;19.70;1.00
6355;DHT22;3210;48.708;9.030;2023-05-29T08:01:06;19.60;1.00
6355;DHT22;3210;48.708;9.030;2023-05-29T08:03:33;19.90;1.00
6355;DHT22;3210;48.708;9.030;2023-05-29T08:06:00;19.80;1.00
6355;DHT22;3210;48.708;9.030;2023-05-29T08:08:27;19.80;1.00
6355;DHT22;3210;48.708;9.030;2023-05-29T08:10:54;20.20;1.00
6355;DHT22;3210;48.708;9.030;2023-05-29T08:13:22;20.10;1.00
6355;DHT22;3210;48.708;9.030;2023-05-29T08:15:49;20.10;1.00
6355;DHT22;3210;48.708;9.030;2023-05-29T08:18:15;20.10;1.00
6355;DHT22;3210;48.708;9.030;2023-05-29T08:20:42;20.20;1.00
6355;DHT22;3210;48.708;9.030;2023-05-29T08:23:10;20.50;1.00
6355;DHT22;3210;48.708;9.030;2023-05-29T08:25:37;20.40;1.00
6355;DHT22;3210;48.708;9.030;2023-05-29T08:28:04;20.30;1.00
6355;DHT22;3210;48.708;9.030;2023-05-29T08:30:32;20.60;1.00
6355;DHT22;3210;48.708;9.030;2023-05-29T08:32:58;20.70;1.00
6355;DHT22;3210;48.708;9.030;2023-05-29T08:35:25;21.10;1.00
6355;DHT22;3210;48.708;9.030;2023-05-29T08:37:52;20.80;1.00
6355;DHT22;3210;48.708;9.030;2023-05-29T08:40:19;20.70;1.00
6355;DHT22;3210;48.708;9.030;2023-05-29T08:42:50;20.80;1.00
6355;DHT22;3210;48.708;9.030;2023-05-29T08:45:19;21.10;1.00
6355;DHT22;3210;48.708;9.030;2023-05-29T08:47:52;21.00;1.00
6355;DHT22;3210;48.708;9.030;2023-05-29T08:50:19;21.00;1.00
6355;DHT22;3210;48.708;9.030;2023-05-29T08:52:47;21.20;1.00
6355;DHT22;3210;48.708;9.030;2023-05-29T08:55:14;21.60;1.00
6355;DHT22;3210;48.708;9.030;2023-05-29T08:57:42;21.80;1.00
6355;DHT22;3210;48.708;9.030;2023-05-29T09:00:11;21.20;1.00
6355;DHT22;3210;48.708;9.030;2023-05-29T09:02:39;21.00;1.00
6355;DHT22;3210;48.708;9.030;2023-05-29T09:05:08;21.20;1.00
6355;DHT22;3210;48.708;9.030;2023-05-29T09:07:35;21.40;1.00
6355;DHT22;3210;48.708;9.030;2023-05-29T09:10:04;21.00;1.00
6355;DHT22;3210;48.708;9.030;2023-05-29T09:12:33;21.10;1.00
6355;DHT22;3210;48.708;9.030;2023-05-29T09:15:00;21.50;1.00
6355;DHT22;3210;48.708;9.030;2023-05-29T09:17:30;21.30;1.00
6355;DHT22;3210;48.708;9.030;2023-05-29T09:19:57;21.50;1.00
6355;DHT22;3210;48.708;9.030;2023-05-29T09:22:26;21.30;1.00
6355;DHT22;3210;48.708;9.030;2023-05-29T09:24:53;21.20;1.00
6355;DHT22;3210;48.708;9.030;2023-05-29T09:27:20;21.40;1.00
6355;DHT22;3210;48.708;9.030;2023-05-29T09:29:48;21.60;1.00
6355;DHT22;3210;48.708;9.030;2023-05-29T09:32:16;21.60;1.00
6355;DHT22;3210;48.708;9.030;2023-05-29T09:34:43;21.50;1.00
6355;DHT22;3210;48.708;9.030;2023-05-29T09:37:10;21.70;1.00
6355;DHT22;3210;48.708;9.030;2023-05-29T09:39:48;21.40;1.00
6355;DHT22;3210;48.708;9.030;2023-05-29T09:42:17;21.50;1.00
6355;DHT22;3210;48.708;9.030;2023-05-29T09:44:45;21.80;1.00
6355;DHT22;3210;48.708;9.030;2023-05-29T09:47:14;22.00;1.00
6355;DHT22;3210;48.708;9.030;2023-05-29T09:49:42;22.20;1.00
6355;DHT22;3210;48.708;9.030;2023-05-29T09:52:11;22.40;1.00
6355;DHT22;3210;48.708;9.030;2023-05-29T09:54:41;22.30;1.00
6355;DHT22;3210;48.708;9.030;2023-05-29T09:57:09;22.70;1.00
6355;DHT22;3210;48.708;9.030;2023-05-29T09:59:37;22.70;1.00
6355;DHT22;3210;48.708;9.030;2023-05-29T10:02:05;22.80;1.00
6355;DHT22;3210;48.708;9.030;2023-05-29T10:04:33;22.80;1.00
6355;DHT22;3210;48.708;9.030;2023-05-29T10:07:04;23.20;1.00
6355;DHT22;3210;48.708;9.030;2023-05-29T10:09:33;23.40;1.00
6355;DHT22;3210;48.708;9.030;2023-05-29T10:12:03;23.20;1.00
6355;DHT22;3210;48.708;9.030;2023-05-29T10:14:35;22.50;1.00
6355;DHT22;3210;48.708;9.030;2023-05-29T10:17:07;22.70;1.00
6355;DHT22;3210;48.708;9.030;2023-05-29T10:19:36;22.50;1.00
6355;DHT22;3210;48.708;9.030;2023-05-29T10:22:04;22.70;1.00
6355;DHT22;3210;48.708;9.030;2023-05-29T10:24:32;22.30;1.00
6355;DHT22;3210;48.708;9.030;2023-05-29T10:26:59;22.70;1.00
6355;DHT22;3210;48.708;9.030;2023-05-29T10:29:29;22.80;1.00
6355;DHT22;3210;48.708;9.030;2023-05-29T10:32:20;23.00;1.00
6355;DHT22;3210;48.708;9.030;2023-05-29T10:34:55;22.90;1.00
6355;DHT22;3210;48.708;9.030;2023-05-29T10:37:31;23.00;1.00
6355;DHT22;3210;48.708;9.030;2023-05-29T10:40:09;23.40;1.00
6355;DHT22;3210;48.708;9.030;2023-05-29T10:42:42;23.60;1.00
6355;DHT22;3210;48.708;9.030;2023-05-29T10:45:10;23.70;1.00
6355;DHT22;3210;48.708;9.030;2023-05-29T10:47:39;23.70;1.00
6355;DHT22;3210;48.708;9.030;2023-05-29T10:50:06;23.90;1.00
6355;DHT22;3210;48.708;9.030;2023-05-29T10:52:33;23.90;1.00
6355;DHT22;3210;48.708;9.030;2023-05-29T10:55:01;23.70;1.00
6355;DHT22;3210;48.708;9.030;2023-05-29T10:57:29;23.90;1.00
6355;DHT22;3210;48.708;9.030;2023-05-29T11:00:05;24.20;1.00
6355;DHT22;3210;48.708;9.030;2023-05-29T11:02:40;23.80;1.00
6355;DHT22;3210;48.708;9.030;2023-05-29T11:05:21;23.80;1.00
6355;DHT22;3210;48.708;9.030;2023-05-29T11:07:55;23.80;1.00
6355;DHT22;3210;48.708;9.030;2023-05-29T11:10:44;23.70;1.00
6355;DHT22;3210;48.708;9.030;2023-05-29T11:13:23;23.60;1.00
6355;DHT22;3210;48.708;9.030;2023-05-29T11:16:13;23.50;1.00
6355;DHT22;3210;48.708;9.030;2023-05-29T11:18:43;23.70;1.00
6355;DHT22;3210;48.708;9.030;2023-05-29T11:21:30;24.10;1.00
6355;DHT22;3210;48.708;9.030;2023-05-29T11:23:58;24.30;1.00
6355;DHT22;3210;48.708;9.030;2023-05-29T11:26:29;24.30;1.00
6355;DHT22;3210;48.708;9.030;2023-05-29T11:28:58;24.30;1.00
6355;DHT22;3210;48.708;9.030;2023-05-29T11:31:25;24.60;1.00
6355;DHT22;3210;48.708;9.030;2023-05-29T11:33:55;24.00;1.00
6355;DHT22;3210;48.708;9.030;2023-05-29T11:36:26;24.00;1.00
6355;DHT22;3210;48.708;9.030;2023-05-29T11:38:53;23.90;1.00
6355;DHT22;3210;48.708;9.030;2023-05-29T11:41:20;23.70;1.00
6355;DHT22;3210;48.708;9.030;2023-05-29T11:43:56;23.60;1.00
6355;DHT22;3210;48.708;9.030;2023-05-29T11:46:23;23.50;1.00
6355;DHT22;3210;48.708;9.030;2023-05-29T11:48:53;23.50;1.00
6355;DHT22;3210;48.708;9.030;2023-05-29T11:51:20;23.20;1.00
6355;DHT22;3210;48.708;9.030;2023-05-29T11:53:47;23.50;1.00
6355;DHT22;3210;48.708;9.030;2023-05-29T11:56:14;23.70;1.00
6355;DHT22;3210;48.708;9.030;2023-05-29T11:58:42;23.60;1.00
6355;DHT22;3210;48.708;9.030;2023-05-29T12:01:09;23.70;1.00
6355;DHT22;3210;48.708;9.030;2023-05-29T12:03:39;23.70;1.00
6355;DHT22;3210;48.708;9.030;2023-05-29T12:06:09;24.00;1.00
6355;DHT22;3210;48.708;9.030;2023-05-29T12:08:36;24.20;1.00
6355;DHT22;3210;48.708;9.030;2023-05-29T12:11:04;24.40;1.00
6355;DHT22;3210;48.708;9.030;2023-05-29T12:13:31;24.90;1.00
6355;DHT22;3210;48.708;9.030;2023-05-29T12:16:01;25.10;1.00
6355;DHT22;3210;48.708;9.030;2023-05-29T12:18:29;24.70;1.00
6355;DHT22;3210;48.708;9.030;2023-05-29T12:20:57;24.60;1.00
6355;DHT22;3210;48.708;9.030;2023-05-29T12:23:27;24.80;1.00
6355;DHT22;3210;48.708;9.030;2023-05-29T12:25:54;25.10;1.00
6355;DHT22;3210;48.708;9.030;2023-05-29T12:28:21;24.70;1.00
6355;DHT22;3210;48.708;9.030;2023-05-29T12:30:48;24.80;1.00
6355;DHT22;3210;48.708;9.030;2023-05-29T12:33:27;24.50;1.00
6355;DHT22;3210;48.708;9.030;2023-05-29T12:35:54;24.40;1.00
6355;DHT22;3210;48.708;9.030;2023-05-29T12:38:22;24.20;1.00
6355;DHT22;3210;48.708;9.030;2023-05-29T12:40:51;24.50;1.00
6355;DHT22;3210;48.708;9.030;2023-05-29T12:43:18;24.60;1.00
6355;DHT22;3210;48.708;9.030;2023-05-29T12:45:45;24.50;1.00
6355;DHT22;3210;48.708;9.030;2023-05-29T12:48:12;24.30;1.00
6355;DHT22;3210;48.708;9.030;2023-05-29T12:50:39;24.30;1.00
6355;DHT22;3210;48.708;9.030;2023-05-29T12:53:07;24.40;1.00
6355;DHT22;3210;48.708;9.030;2023-05-29T12:55:36;24.80;1.00
6355;DHT22;3210;48.708;9.030;2023-05-29T12:58:06;24.60;1.00
6355;DHT22;3210;48.708;9.030;2023-05-29T13:00:34;24.70;1.00
6355;DHT22;3210;48.708;9.030;2023-05-29T13:03:01;25.00;1.00
6355;DHT22;3210;48.708;9.030;2023-05-29T13:05:29;24.90;1.00
6355;DHT22;3210;48.708;9.030;2023-05-29T13:07:56;24.50;1.00
6355;DHT22;3210;48.708;9.030;2023-05-29T13:10:24;24.40;1.00
6355;DHT22;3210;48.708;9.030;2023-05-29T13:12:52;24.50;1.00
6355;DHT22;3210;48.708;9.030;2023-05-29T13:15:22;24.70;1.00
6355;DHT22;3210;48.708;9.030;2023-05-29T13:17:49;24.80;1.00
6355;DHT22;3210;48.708;9.030;2023-05-29T13:20:17;24.80;1.00
6355;DHT22;3210;48.708;9.030;2023-05-29T13:22:45;24.70;1.00
6355;DHT22;3210;48.708;9.030;2023-05-29T13:25:13;24.60;1.00
6355;DHT22;3210;48.708;9.030;2023-05-29T13:27:42;24.20;1.00
6355;DHT22;3210;48.708;9.030;2023-05-29T13:30:11;24.10;1.00
6355;DHT22;3210;48.708;9.030;2023-05-29T13:32:40;24.20;1.00
6355;DHT22;3210;48.708;9.030;2023-05-29T13:35:07;24.40;1.00
6355;DHT22;3210;48.708;9.030;2023-05-29T13:37:35;24.80;1.00
6355;DHT22;3210;48.708;9.030;2023-05-29T13:40:03;24.70;1.00
6355;DHT22;3210;48.708;9.030;2023-05-29T13:42:30;24.50;1.00
6355;DHT22;3210;48.708;9.030;2023-05-29T13:44:57;24.70;1.00
6355;DHT22;3210;48.708;9.030;2023-05-29T13:47:24;24.70;1.00
6355;DHT22;3210;48.708;9.030;2023-05-29T13:49:55;24.40;1.00
6355;DHT22;3210;48.708;9.030;2023-05-29T13:52:22;24.20;1.00
6355;DHT22;3210;48.708;9.030;2023-05-29T13:54:48;24.30;1.00
6355;DHT22;3210;48.708;9.030;2023-05-29T13:57:15;24.30;1.00
6355;DHT22;3210;48.708;9.030;2023-05-29T13:59:42;24.30;1.00
6355;DHT22;3210;48.708;9.030;2023-05-29T14:02:09;24.50;1.00
6355;DHT22;3210;48.708;9.030;2023-05-29T14:04:36;24.40;1.00
6355;DHT22;3210;48.708;9.030;2023-05-29T14:07:05;24.40;1.00
6355;DHT22;3210;48.708;9.030;2023-05-29T14:09:32;24.70;1.00
6355;DHT22;3210;48.708;9.030;2023-05-29T14:11:59;25.00;1.00
6355;DHT22;3210;48.708;9.030;2023-05-29T14:14:27;25.10;1.00
6355;DHT22;3210;48.708;9.030;2023-05-29T14:16:54;24.60;1.00
6355;DHT22;3210;48.708;9.030;2023-05-29T14:19:21;24.50;1.00
6355;DHT22;3210;48.708;9.030;2023-05-29T14:21:48;24.70;1.00
6355;DHT22;3210;48.708;9.030;2023-05-29T14:24:17;24.90;1.00
6355;DHT22;3210;48.708;9.030;2023-05-29T14:26:44;25.20;1.00
6355;DHT22;3210;48.708;9.030;2023-05-29T14:29:12;25.10;1.00
6355;DHT22;3210;48.708;9.030;2023-05-29T14:31:40;25.00;1.00
6355;DHT22;3210;48.708;9.030;2023-05-29T14:34:07;25.10;1.00
6355;DHT22;3210;48.708;9.030;2023-05-29T14:36:33;25.10;1.00
6355;DHT22;3210;48.708;9.030;2023-05-29T14:39:01;25.00;1.00
6355;DHT22;3210;48.708;9.030;2023-05-29T14:41:29;24.80;1.00
6355;DHT22;3210;48.708;9.030;2023-05-29T14:43:56;25.10;1.00
6355;DHT22;3210;48.708;9.030;2023-05-29T14:46:23;24.60;1.00
6355;DHT22;3210;48.708;9.030;2023-05-29T14:48:51;24.40;1.00
6355;DHT22;3210;48.708;9.030;2023-05-29T14:51:18;24.70;1.00
6355;DHT22;3210;48.708;9.030;2023-05-29T14:53:46;25.10;1.00
6355;DHT22;3210;48.708;9.030;2023-05-29T14:56:12;25.50;1.00
6355;DHT22;3210;48.708;9.030;2023-05-29T14:58:40;25.60;1.00
6355;DHT22;3210;48.708;9.030;2023-05-29T15:01:07;25.60;1.00
6355;DHT22;3210;48.708;9.030;2023-05-29T15:03:34;25.20;1.00
6355;DHT22;3210;48.708;9.030;2023-05-29T15:06:01;25.10;1.00
6355;DHT22;3210;48.708;9.030;2023-05-29T15:08:29;24.90;1.00
6355;DHT22;3210;48.708;9.030;2023-05-29T15:11:00;25.00;1.00
6355;DHT22;3210;48.708;9.030;2023-05-29T15:13:26;25.00;1.00
6355;DHT22;3210;48.708;9.030;2023-05-29T15:15:55;25.10;1.00
6355;DHT22;3210;48.708;9.030;2023-05-29T15:18:24;25.30;1.00
6355;DHT22;3210;48.708;9.030;2023-05-29T15:20:51;25.20;1.00
6355;DHT22;3210;48.708;9.030;2023-05-29T15:23:19;25.20;1.00
6355;DHT22;3210;48.708;9.030;2023-05-29T15:25:48;25.20;1.00
6355;DHT22;3210;48.708;9.030;2023-05-29T15:28:14;25.70;1.00
6355;DHT22;3210;48.708;9.030;2023-05-29T15:30:41;25.80;1.00
6355;DHT22;3210;48.708;9.030;2023-05-29T15:33:09;26.00;1.00
6355;DHT22;3210;48.708;9.030;2023-05-29T15:35:36;25.60;1.00
6355;DHT22;3210;48.708;9.030;2023-05-29T15:38:03;25.50;1.00
6355;DHT22;3210;48.708;9.030;2023-05-29T15:40:30;25.50;1.00
6355;DHT22;3210;48.708;9.030;2023-05-29T15:42:57;25.70;1.00
6355;DHT22;3210;48.708;9.030;2023-05-29T15:45:24;25.60;1.00
6355;DHT22;3210;48.708;9.030;2023-05-29T15:47:52;25.60;1.00
6355;DHT22;3210;48.708;9.030;2023-05-29T15:50:20;25.40;1.00
6355;DHT22;3210;48.708;9.030;2023-05-29T15:52:48;25.30;1.00
6355;DHT22;3210;48.708;9.030;2023-05-29T15:55:15;25.20;1.00
6355;DHT22;3210;48.708;9.030;2023-05-29T15:57:42;25.30;1.00
6355;DHT22;3210;48.708;9.030;2023-05-29T16:00:10;24.80;1.00
6355;DHT22;3210;48.708;9.030;2023-05-29T16:02:38;24.90;1.00
6355;DHT22;3210;48.708;9.030;2023-05-29T16:05:06;24.70;1.00
6355;DHT22;3210;48.708;9.030;2023-05-29T16:07:35;24.70;1.00
6355;DHT22;3210;48.708;9.030;2023-05-29T16:10:02;24.60;1.00
6355;DHT22;3210;48.708;9.030;2023-05-29T16:12:29;25.00;1.00
6355;DHT22;3210;48.708;9.030;2023-05-29T16:14:57;25.10;1.00
6355;DHT22;3210;48.708;9.030;2023-05-29T16:17:24;24.80;1.00
6355;DHT22;3210;48.708;9.030;2023-05-29T16:19:51;25.00;1.00
6355;DHT22;3210;48.708;9.030;2023-05-29T16:22:20;25.20;1.00
6355;DHT22;3210;48.708;9.030;2023-05-29T16:24:50;24.80;1.00
6355;DHT22;3210;48.708;9.030;2023-05-29T16:27:17;24.40;1.00
6355;DHT22;3210;48.708;9.030;2023-05-29T16:29:44;24.20;1.00
6355;DHT22;3210;48.708;9.030;2023-05-29T16:32:11;24.20;1.00
6355;DHT22;3210;48.708;9.030;2023-05-29T16:34:37;24.40;1.00
6355;DHT22;3210;48.708;9.030;2023-05-29T16:37:05;24.40;1.00
6355;DHT22;3210;48.708;9.030;2023-05-29T16:39:33;24.10;1.00
6355;DHT22;3210;48.708;9.030;2023-05-29T16:42:02;24.30;1.00
6355;DHT22;3210;48.708;9.030;2023-05-29T16:44:29;24.30;1.00
6355;DHT22;3210;48.708;9.030;2023-05-29T16:46:56;24.50;1.00
6355;DHT22;3210;48.708;9.030;2023-05-29T16:49:23;24.30;1.00
6355;DHT22;3210;48.708;9.030;2023-05-29T16:51:51;24.20;1.00
6355;DHT22;3210;48.708;9.030;2023-05-29T16:54:18;24.10;1.00
6355;DHT22;3210;48.708;9.030;2023-05-29T16:56:45;24.00;1.00
6355;DHT22;3210;48.708;9.030;2023-05-29T16:59:13;24.30;1.00
6355;DHT22;3210;48.708;9.030;2023-05-29T17:01:41;24.40;1.00
6355;DHT22;3210;48.708;9.030;2023-05-29T17:04:08;24.50;1.00
6355;DHT22;3210;48.708;9.030;2023-05-29T17:06:36;24.40;1.00
6355;DHT22;3210;48.708;9.030;2023-05-29T17:09:04;24.60;1.00
6355;DHT22;3210;48.708;9.030;2023-05-29T17:11:32;24.50;1.00
6355;DHT22;3210;48.708;9.030;2023-05-29T17:13:59;24.60;1.00
6355;DHT22;3210;48.708;9.030;2023-05-29T17:16:27;24.70;1.00
6355;DHT22;3210;48.708;9.030;2023-05-29T17:18:54;24.70;1.00
6355;DHT22;3210;48.708;9.030;2023-05-29T17:21:20;24.70;1.00
6355;DHT22;3210;48.708;9.030;2023-05-29T17:23:47;24.40;1.00
6355;DHT22;3210;48.708;9.030;2023-05-29T17:26:20;24.30;1.00
6355;DHT22;3210;48.708;9.030;2023-05-29T17:28:48;24.10;1.00
6355;DHT22;3210;48.708;9.030;2023-05-29T17:31:15;23.90;1.00
6355;DHT22;3210;48.708;9.030;2023-05-29T17:33:43;23.90;1.00
6355;DHT22;3210;48.708;9.030;2023-05-29T17:36:10;23.70;1.00
6355;DHT22;3210;48.708;9.030;2023-05-29T17:38:37;23.90;1.00
6355;DHT22;3210;48.708;9.030;2023-05-29T17:41:04;23.90;1.00
6355;DHT22;3210;48.708;9.030;2023-05-29T17:43:31;24.10;1.00
6355;DHT22;3210;48.708;9.030;2023-05-29T17:45:58;23.80;1.00
6355;DHT22;3210;48.708;9.030;2023-05-29T17:48:25;23.70;1.00
6355;DHT22;3210;48.708;9.030;2023-05-29T17:50:53;23.60;1.00
6355;DHT22;3210;48.708;9.030;2023-05-29T17:53:20;23.40;1.00
6355;DHT22;3210;48.708;9.030;2023-05-29T17:55:47;23.30;1.00
6355;DHT22;3210;48.708;9.030;2023-05-29T17:58:14;23.10;1.00
6355;DHT22;3210;48.708;9.030;2023-05-29T18:00:41;22.80;1.00
6355;DHT22;3210;48.708;9.030;2023-05-29T18:03:08;22.40;1.00
6355;DHT22;3210;48.708;9.030;2023-05-29T18:05:34;22.40;1.00
6355;DHT22;3210;48.708;9.030;2023-05-29T18:08:02;22.40;1.00
6355;DHT22;3210;48.708;9.030;2023-05-29T18:10:29;22.20;1.00
6355;DHT22;3210;48.708;9.030;2023-05-29T18:12:56;22.00;1.00
6355;DHT22;3210;48.708;9.030;2023-05-29T18:15:23;22.00;1.00
6355;DHT22;3210;48.708;9.030;2023-05-29T18:17:49;21.60;1.00
6355;DHT22;3210;48.708;9.030;2023-05-29T18:20:17;21.70;1.00
6355;DHT22;3210;48.708;9.030;2023-05-29T18:22:44;21.70;1.00
6355;DHT22;3210;48.708;9.030;2023-05-29T18:25:12;21.60;1.00
6355;DHT22;3210;48.708;9.030;2023-05-29T18:27:40;21.50;1.00
6355;DHT22;3210;48.708;9.030;2023-05-29T18:30:10;21.50;1.00
6355;DHT22;3210;48.708;9.030;2023-05-29T18:32:38;21.20;1.00
6355;DHT22;3210;48.708;9.030;2023-05-29T18:35:06;21.10;1.00
6355;DHT22;3210;48.708;9.030;2023-05-29T18:37:32;21.10;1.00
6355;DHT22;3210;48.708;9.030;2023-05-29T18:40:03;21.00;1.00
6355;DHT22;3210;48.708;9.030;2023-05-29T18:42:31;21.00;1.00
6355;DHT22;3210;48.708;9.030;2023-05-29T18:44:59;20.90;1.00
6355;DHT22;3210;48.708;9.030;2023-05-29T18:47:26;20.70;1.00
6355;DHT22;3210;48.708;9.030;2023-05-29T18:49:52;20.60;1.00
6355;DHT22;3210;48.708;9.030;2023-05-29T18:52:21;20.50;1.00
6355;DHT22;3210;48.708;9.030;2023-05-29T18:54:48;20.40;1.00
6355;DHT22;3210;48.708;9.030;2023-05-29T18:57:15;20.20;1.00
6355;DHT22;3210;48.708;9.030;2023-05-29T18:59:43;20.10;1.00
6355;DHT22;3210;48.708;9.030;2023-05-29T19:02:10;20.00;1.00
6355;DHT22;3210;48.708;9.030;2023-05-29T19:04:36;20.00;1.00
6355;DHT22;3210;48.708;9.030;2023-05-29T19:07:04;19.90;1.00
6355;DHT22;3210;48.708;9.030;2023-05-29T19:09:31;19.80;1.00
6355;DHT22;3210;48.708;9.030;2023-05-29T19:11:58;19.70;1.00
6355;DHT22;3210;48.708;9.030;2023-05-29T19:14:25;19.50;1.00
6355;DHT22;3210;48.708;9.030;2023-05-29T19:16:53;19.40;1.00
6355;DHT22;3210;48.708;9.030;2023-05-29T19:19:20;19.30;1.00
6355;DHT22;3210;48.708;9.030;2023-05-29T19:21:47;19.20;1.00
6355;DHT22;3210;48.708;9.030;2023-05-29T19:24:15;19.20;1.00
6355;DHT22;3210;48.708;9.030;2023-05-29T19:26:44;19.20;1.00
6355;DHT22;3210;48.708;9.030;2023-05-29T19:29:11;19.00;1.00
6355;DHT22;3210;48.708;9.030;2023-05-29T19:31:37;18.90;1.00
6355;DHT22;3210;48.708;9.030;2023-05-29T19:34:06;18.80;1.00
6355;DHT22;3210;48.708;9.030;2023-05-29T19:36:34;18.80;1.00
6355;DHT22;3210;48.708;9.030;2023-05-29T19:39:01;18.80;1.00
6355;DHT22;3210;48.708;9.030;2023-05-29T19:41:27;18.80;1.00
6355;DHT22;3210;48.708;9.030;2023-05-29T19:43:54;18.80;1.00
6355;DHT22;3210;48.708;9.030;2023-05-29T19:46:21;18.80;1.00
6355;DHT22;3210;48.708;9.030;2023-05-29T19:48:48;18.70;1.00
6355;DHT22;3210;48.708;9.030;2023-05-29T19:51:16;18.70;1.00
6355;DHT22;3210;48.708;9.030;2023-05-29T19:53:43;18.70;1.00
6355;DHT22;3210;48.708;9.030;2023-05-29T19:56:10;18.60;1.00
6355;DHT22;3210;48.708;9.030;2023-05-29T19:58:37;18.50;1.00
6355;DHT22;3210;48.708;9.030;2023-05-29T20:01:04;18.30;1.00
6355;DHT22;3210;48.708;9.030;2023-05-29T20:03:32;18.40;1.00
6355;DHT22;3210;48.708;9.030;2023-05-29T20:05:59;18.30;1.00
6355;DHT22;3210;48.708;9.030;2023-05-29T20:08:28;18.20;1.00
6355;DHT22;3210;48.708;9.030;2023-05-29T20:10:55;18.30;1.00
6355;DHT22;3210;48.708;9.030;2023-05-29T20:13:22;18.30;1.00
6355;DHT22;3210;48.708;9.030;2023-05-29T20:15:51;18.20;1.00
6355;DHT22;3210;48.708;9.030;2023-05-29T20:18:18;18.30;1.00
6355;DHT22;3210;48.708;9.030;2023-05-29T20:20:45;18.20;1.00
6355;DHT22;3210;48.708;9.030;2023-05-29T20:23:12;18.20;1.00
6355;DHT22;3210;48.708;9.030;2023-05-29T20:25:40;18.30;1.00
6355;DHT22;3210;48.708;9.030;2023-05-29T20:28:07;18.20;1.00
6355;DHT22;3210;48.708;9.030;2023-05-29T20:30:34;18.10;1.00
6355;DHT22;3210;48.708;9.030;2023-05-29T20:33:01;18.10;1.00
6355;DHT22;3210;48.708;9.030;2023-05-29T20:35:28;18.10;1.00
6355;DHT22;3210;48.708;9.030;2023-05-29T20:37:55;18.00;1.00
6355;DHT22;3210;48.708;9.030;2023-05-29T20:40:22;17.90;1.00
6355;DHT22;3210;48.708;9.030;2023-05-29T20:42:50;17.90;1.00
6355;DHT22;3210;48.708;9.030;2023-05-29T20:45:20;17.90;1.00
6355;DHT22;3210;48.708;9.030;2023-05-29T20:47:47;17.90;1.00
6355;DHT22;3210;48.708;9.030;2023-05-29T20:50:14;17.70;1.00
6355;DHT22;3210;48.708;9.030;2023-05-29T20:52:41;17.60;1.00
6355;DHT22;3210;48.708;9.030;2023-05-29T20:55:08;17.50;1.00
6355;DHT22;3210;48.708;9.030;2023-05-29T20:57:35;17.30;1.00
6355;DHT22;3210;48.708;9.030;2023-05-29T21:00:04;17.30;1.00
6355;DHT22;3210;48.708;9.030;2023-05-29T21:02:37;17.40;1.00
6355;DHT22;3210;48.708;9.030;2023-05-29T21:05:04;17.40;1.00
6355;DHT22;3210;48.708;9.030;2023-05-29T21:07:32;17.30;1.00
6355;DHT22;3210;48.708;9.030;2023-05-29T21:10:02;17.10;1.00
6355;DHT22;3210;48.708;9.030;2023-05-29T21:12:29;17.10;1.00
6355;DHT22;3210;48.708;9.030;2023-05-29T21:14:56;17.00;1.00
6355;DHT22;3210;48.708;9.030;2023-05-29T21:17:24;16.80;1.00
6355;DHT22;3210;48.708;9.030;2023-05-29T21:19:51;16.60;1.00
6355;DHT22;3210;48.708;9.030;2023-05-29T21:22:18;16.50;1.00
6355;DHT22;3210;48.708;9.030;2023-05-29T21:24:45;16.40;1.00
6355;DHT22;3210;48.708;9.030;2023-05-29T21:27:11;16.30;1.00
6355;DHT22;3210;48.708;9.030;2023-05-29T21:29:39;16.10;1.00
6355;DHT22;3210;48.708;9.030;2023-05-29T21:32:07;16.00;1.00
6355;DHT22;3210;48.708;9.030;2023-05-29T21:34:37;15.90;1.00
6355;DHT22;3210;48.708;9.030;2023-05-29T21:37:06;16.00;1.00
6355;DHT22;3210;48.708;9.030;2023-05-29T21:39:33;16.20;1.00
6355;DHT22;3210;48.708;9.030;2023-05-29T21:42:00;16.30;1.00
6355;DHT22;3210;48.708;9.030;2023-05-29T21:44:28;16.30;1.00
6355;DHT22;3210;48.708;9.030;2023-05-29T21:46:56;16.40;1.00
6355;DHT22;3210;48.708;9.030;2023-05-29T21:49:22;16.40;1.00
6355;DHT22;3210;48.708;9.030;2023-05-29T21:51:51;16.30;1.00
6355;DHT22;3210;48.708;9.030;2023-05-29T21:54:18;16.30;1.00
6355;DHT22;3210;48.708;9.030;2023-05-29T21:56:44;16.20;1.00
6355;DHT22;3210;48.708;9.030;2023-05-29T21:59:11;16.30;1.00
6355;DHT22;3210;48.708;9.030;2023-05-29T22:01:38;16.00;1.00
6355;DHT22;3210;48.708;9.030;2023-05-29T22:04:05;15.90;1.00
6355;DHT22;3210;48.708;9.030;2023-05-29T22:06:32;15.70;1.00
6355;DHT22;3210;48.708;9.030;2023-05-29T22:09:00;15.60;1.00
6355;DHT22;3210;48.708;9.030;2023-05-29T22:11:27;15.50;1.00
6355;DHT22;3210;48.708;9.030;2023-05-29T22:13:56;15.30;1.00
6355;DHT22;3210;48.708;9.030;2023-05-29T22:16:22;15.10;1.00
6355;DHT22;3210;48.708;9.030;2023-05-29T22:18:49;15.00;1.00
6355;DHT22;3210;48.708;9.030;2023-05-29T22:21:18;14.80;1.00
6355;DHT22;3210;48.708;9.030;2023-05-29T22:23:46;14.90;1.00
6355;DHT22;3210;48.708;9.030;2023-05-29T22:26:15;15.10;1.00
6355;DHT22;3210;48.708;9.030;2023-05-29T22:28:42;15.20;1.00
6355;DHT22;3210;48.708;9.030;2023-05-29T22:31:09;15.40;1.00
6355;DHT22;3210;48.708;9.030;2023-05-29T22:33:35;15.30;1.00
6355;DHT22;3210;48.708;9.030;2023-05-29T22:36:03;15.30;1.00
6355;DHT22;3210;48.708;9.030;2023-05-29T22:38:30;15.50;1.00
6355;DHT22;3210;48.708;9.030;2023-05-29T22:40:56;15.60;1.00
6355;DHT22;3210;48.708;9.030;2023-05-29T22:43:25;15.60;1.00
6355;DHT22;3210;48.708;9.030;2023-05-29T22:45:52;15.70;1.00
6355;DHT22;3210;48.708;9.030;2023-05-29T22:48:19;15.60;1.00
6355;DHT22;3210;48.708;9.030;2023-05-29T22:50:47;15.60;1.00